createdAt,value
2023-11-17T00:00:13.675Z,9.10
2023-11-17T00:02:41.674Z,9.20
2023-11-17T00:05:08.975Z,9.10
2023-11-17T00:07:36.012Z,9.10
2023-11-17T00:10:03.823Z,9.10
2023-11-17T00:12:30.979Z,9.10
2023-11-17T00:14:57.882Z,9.10
2023-11-17T00:17:25.058Z,9.10
2023-11-17T00:19:52.506Z,9.10
2023-11-17T00:22:21.625Z,9.10
2023-11-17T00:24:48.792Z,9.20
2023-11-17T00:27:16.088Z,9.20
2023-11-17T00:29:43.069Z,9.20
2023-11-17T00:32:10.026Z,9.20
2023-11-17T00:34:37.107Z,9.20
2023-11-17T00:37:08.887Z,9.20
2023-11-17T00:39:38.178Z,9.20
2023-11-17T00:42:05.389Z,9.20
2023-11-17T00:44:32.526Z,9.20
2023-11-17T00:47:00.750Z,9.20
2023-11-17T00:49:28.096Z,9.20
2023-11-17T00:51:55.409Z,9.20
2023-11-17T00:54:27.307Z,9.20
2023-11-17T00:56:55.785Z,9.20
2023-11-17T00:59:23.412Z,9.20
2023-11-17T01:01:50.631Z,9.30
2023-11-17T01:04:18.359Z,9.30
2023-11-17T01:06:45.795Z,9.30
2023-11-17T01:09:13.626Z,9.40
2023-11-17T01:11:40.993Z,9.40
2023-11-17T01:14:09.821Z,9.40
2023-11-17T01:16:37.106Z,9.40
2023-11-17T01:19:04.275Z,9.40
2023-11-17T01:21:32.443Z,9.40
2023-11-17T01:24:02.570Z,9.40
2023-11-17T01:26:30.935Z,9.40
2023-11-17T01:28:58.198Z,9.40
2023-11-17T01:31:25.693Z,9.40
2023-11-17T01:33:52.661Z,9.40
2023-11-17T01:36:21.519Z,9.40
2023-11-17T01:38:53.275Z,9.40
2023-11-17T01:41:22.547Z,9.40
2023-11-17T01:43:49.895Z,9.40
2023-11-17T01:46:18.952Z,9.40
2023-11-17T01:48:45.942Z,9.40
2023-11-17T01:51:13.638Z,9.40
2023-11-17T01:53:41.258Z,9.40
2023-11-17T01:56:08.419Z,9.30
2023-11-17T01:58:35.517Z,9.40
2023-11-17T02:01:02.899Z,9.30
2023-11-17T02:03:30.534Z,9.40
2023-11-17T02:06:43.592Z,9.40
2023-11-17T02:09:35.802Z,9.40
2023-11-17T02:12:28.399Z,9.40
2023-11-17T02:15:02.254Z,9.40
2023-11-17T02:17:30.333Z,9.40
2023-11-17T02:20:13.193Z,9.40
2023-11-17T02:22:49.098Z,9.40
2023-11-17T02:25:34.065Z,9.40
2023-11-17T02:28:21.660Z,9.40
2023-11-17T02:30:57.319Z,9.40
2023-11-17T02:33:28.521Z,9.40
2023-11-17T02:35:58.538Z,9.40
2023-11-17T02:38:25.499Z,9.40
2023-11-17T02:40:57.432Z,9.40
2023-11-17T02:43:30.727Z,9.40
2023-11-17T02:46:01.702Z,9.40
2023-11-17T02:48:30.922Z,9.40
2023-11-17T02:51:19.745Z,9.40
2023-11-17T02:53:51.096Z,9.40
2023-11-17T02:56:22.959Z,9.40
2023-11-17T02:58:55.563Z,9.40
2023-11-17T03:01:24.785Z,9.40
2023-11-17T03:03:52.379Z,9.40
2023-11-17T03:06:19.369Z,9.40
2023-11-17T03:08:48.896Z,9.50
2023-11-17T03:11:22.195Z,9.40
2023-11-17T03:13:52.498Z,9.40
2023-11-17T03:16:25.114Z,9.40
2023-11-17T03:18:53.646Z,9.40
2023-11-17T03:21:24.463Z,9.40
2023-11-17T03:23:52.034Z,9.40
2023-11-17T03:26:20.427Z,9.40
2023-11-17T03:28:47.357Z,9.40
2023-11-17T03:31:15.657Z,9.40
2023-11-17T03:33:44.862Z,9.40
2023-11-17T03:36:20.432Z,9.40
2023-11-17T03:38:47.762Z,9.50
2023-11-17T03:41:19.632Z,9.50
2023-11-17T03:43:46.844Z,9.50
2023-11-17T03:46:14.679Z,9.50
2023-11-17T03:48:41.691Z,9.50
2023-11-17T03:51:09.798Z,9.50
2023-11-17T03:53:37.128Z,9.50
2023-11-17T03:56:05.216Z,9.40
2023-11-17T03:58:32.150Z,9.50
2023-11-17T04:00:59.137Z,9.40
2023-11-17T04:03:26.132Z,9.50
2023-11-17T04:05:54.505Z,9.40
2023-11-17T04:08:21.475Z,9.50
2023-11-17T04:10:48.434Z,9.50
2023-11-17T04:13:15.674Z,9.50
2023-11-17T04:15:42.616Z,9.50
2023-11-17T04:18:11.264Z,9.50
2023-11-17T04:20:38.201Z,9.50
2023-11-17T04:23:05.136Z,9.50
2023-11-17T04:25:32.081Z,9.50
2023-11-17T04:27:59.451Z,9.50
2023-11-17T04:30:26.615Z,9.50
2023-11-17T04:32:53.608Z,9.60
2023-11-17T04:35:20.570Z,9.60
2023-11-17T04:37:47.693Z,9.60
2023-11-17T04:40:17.233Z,9.60
2023-11-17T04:42:44.869Z,9.60
2023-11-17T04:45:11.833Z,9.60
2023-11-17T04:47:38.828Z,9.70
2023-11-17T04:50:10.072Z,9.70
2023-11-17T04:52:37.233Z,9.70
2023-11-17T04:55:06.838Z,9.60
2023-11-17T04:57:35.519Z,9.70
2023-11-17T05:00:05.377Z,9.60
2023-11-17T05:02:34.296Z,9.70
2023-11-17T05:05:01.956Z,9.70
2023-11-17T05:07:29.034Z,9.70
2023-11-17T05:09:56.129Z,9.70
2023-11-17T05:12:23.325Z,9.70
2023-11-17T05:14:51.273Z,9.70
2023-11-17T05:17:18.302Z,9.70
2023-11-17T05:19:46.605Z,9.70
2023-11-17T05:22:13.746Z,9.70
2023-11-17T05:24:40.692Z,9.80
2023-11-17T05:27:07.998Z,9.70
2023-11-17T05:29:34.965Z,9.70
2023-11-17T05:32:02.072Z,9.70
2023-11-17T05:34:29.828Z,9.70
2023-11-17T05:36:56.815Z,9.70
2023-11-17T05:39:24.799Z,9.70
2023-11-17T05:41:53.001Z,9.80
2023-11-17T05:44:20.283Z,9.70
2023-11-17T05:46:47.386Z,9.70
2023-11-17T05:49:14.449Z,9.70
2023-11-17T05:51:41.504Z,9.70
2023-11-17T05:54:08.404Z,9.70
2023-11-17T05:56:35.320Z,9.70
2023-11-17T05:59:02.260Z,9.70
2023-11-17T06:01:30.513Z,9.70
2023-11-17T06:03:57.799Z,9.70
2023-11-17T06:06:24.814Z,9.70
2023-11-17T06:08:51.715Z,9.70
2023-11-17T06:11:26.142Z,9.70
2023-11-17T06:13:53.058Z,9.60
2023-11-17T06:16:22.822Z,9.60
2023-11-17T06:18:50.992Z,9.60
2023-11-17T06:21:18.023Z,9.60
2023-11-17T06:23:45.111Z,9.60
2023-11-17T06:26:12.059Z,9.60
2023-11-17T06:28:39.384Z,9.60
2023-11-17T06:31:07.596Z,9.60
2023-11-17T06:33:34.946Z,9.50
2023-11-17T06:36:04.870Z,9.40
2023-11-17T06:38:33.039Z,9.50
2023-11-17T06:41:00.645Z,9.40
2023-11-17T06:43:28.677Z,9.40
2023-11-17T06:45:55.696Z,9.40
2023-11-17T06:48:24.274Z,9.40
2023-11-17T06:50:51.224Z,9.50
2023-11-17T06:53:20.116Z,9.50
2023-11-17T06:55:47.072Z,9.40
2023-11-17T06:58:14.040Z,9.40
2023-11-17T07:00:41.949Z,9.40
2023-11-17T07:03:08.912Z,9.40
2023-11-17T07:05:36.081Z,9.50
2023-11-17T07:08:03.041Z,9.40
2023-11-17T07:10:30.428Z,9.50
2023-11-17T07:12:57.641Z,9.40
2023-11-17T07:15:26.052Z,9.50
2023-11-17T07:17:55.013Z,9.50
2023-11-17T07:20:23.358Z,9.50
2023-11-17T07:22:50.502Z,9.50
2023-11-17T07:25:18.326Z,9.50
2023-11-17T07:27:45.699Z,9.50
2023-11-17T07:30:15.854Z,9.50
2023-11-17T07:32:46.392Z,9.60
2023-11-17T07:35:13.430Z,9.50
2023-11-17T07:37:40.411Z,9.60
2023-11-17T07:40:10.419Z,9.60
2023-11-17T07:42:40.630Z,9.60
2023-11-17T07:45:08.840Z,9.60
2023-11-17T07:47:37.761Z,9.70
2023-11-17T07:50:08.403Z,9.70
2023-11-17T07:52:36.158Z,9.70
2023-11-17T07:55:03.602Z,9.70
2023-11-17T07:57:31.309Z,9.70
2023-11-17T07:59:59.048Z,9.80
2023-11-17T08:02:25.978Z,9.80
2023-11-17T08:04:52.961Z,9.80
2023-11-17T08:07:19.984Z,9.80
2023-11-17T08:09:47.020Z,9.80
2023-11-17T08:12:14.688Z,9.90
2023-11-17T08:14:41.608Z,9.90
2023-11-17T08:17:08.858Z,9.90
2023-11-17T08:19:36.496Z,9.90
2023-11-17T08:22:04.865Z,9.90
2023-11-17T08:24:32.447Z,9.80
2023-11-17T08:26:59.386Z,9.90
2023-11-17T08:29:27.108Z,9.90
2023-11-17T08:31:55.705Z,9.90
2023-11-17T08:34:23.090Z,10.00
2023-11-17T08:36:50.612Z,10.00
2023-11-17T08:39:27.193Z,10.10
2023-11-17T08:41:56.143Z,10.10
2023-11-17T08:44:24.116Z,10.10
2023-11-17T08:46:52.374Z,10.10
2023-11-17T08:49:19.593Z,10.10
2023-11-17T08:51:48.229Z,10.10
2023-11-17T08:54:16.197Z,10.10
2023-11-17T08:56:44.225Z,10.10
2023-11-17T08:59:11.433Z,10.10
2023-11-17T09:01:38.705Z,10.10
2023-11-17T09:04:05.891Z,10.10
2023-11-17T09:06:34.702Z,10.10
2023-11-17T09:09:16.086Z,10.10
2023-11-17T09:11:51.081Z,10.10
2023-11-17T09:14:18.700Z,10.00
2023-11-17T09:16:49.817Z,10.00
2023-11-17T09:19:17.584Z,9.90
2023-11-17T09:21:44.681Z,9.90
2023-11-17T09:24:11.605Z,9.90
2023-11-17T09:26:38.489Z,9.90
2023-11-17T09:29:05.418Z,9.90
2023-11-17T09:31:32.623Z,9.90
2023-11-17T09:33:59.683Z,9.90
2023-11-17T09:36:27.287Z,9.90
2023-11-17T09:38:56.205Z,9.90
2023-11-17T09:41:24.325Z,9.90
2023-11-17T09:43:58.866Z,9.90
2023-11-17T09:46:29.101Z,9.90
2023-11-17T09:49:02.045Z,10.00
2023-11-17T09:51:29.678Z,10.00
2023-11-17T09:53:59.243Z,10.10
2023-11-17T09:56:27.569Z,10.00
2023-11-17T09:58:55.080Z,10.10
2023-11-17T10:01:28.882Z,10.10
2023-11-17T10:04:00.360Z,10.20
2023-11-17T10:06:29.683Z,10.20
2023-11-17T10:08:59.255Z,10.20
2023-11-17T10:11:27.375Z,10.20
2023-11-17T10:13:57.602Z,10.20
2023-11-17T10:16:25.063Z,10.30
2023-11-17T10:18:53.294Z,10.30
2023-11-17T10:21:20.538Z,10.30
2023-11-17T10:23:52.172Z,10.30
2023-11-17T10:26:21.187Z,10.40
2023-11-17T10:28:48.807Z,10.40
2023-11-17T10:31:17.860Z,10.40
2023-11-17T10:33:46.740Z,10.40
2023-11-17T10:36:17.268Z,10.50
2023-11-17T10:38:47.152Z,10.50
2023-11-17T10:41:31.247Z,10.50
2023-11-17T10:44:00.228Z,10.40
2023-11-17T10:46:37.188Z,10.40
2023-11-17T10:49:06.215Z,10.30
2023-11-17T10:51:35.761Z,10.30
2023-11-17T10:54:07.030Z,10.30
2023-11-17T10:56:35.753Z,10.30
2023-11-17T10:59:04.024Z,10.30
2023-11-17T11:01:32.772Z,10.40
2023-11-17T11:04:00.660Z,10.40
2023-11-17T11:06:28.626Z,10.50
2023-11-17T11:08:59.446Z,10.50
2023-11-17T11:11:27.868Z,10.50
2023-11-17T11:13:55.998Z,10.60
2023-11-17T11:16:25.545Z,10.60
2023-11-17T11:18:59.434Z,10.70
2023-11-17T11:21:31.356Z,10.80
2023-11-17T11:24:02.223Z,10.80
2023-11-17T11:26:30.969Z,10.90
2023-11-17T11:29:00.116Z,11.00
2023-11-17T11:31:27.339Z,11.00
2023-11-17T11:33:54.342Z,11.00
2023-11-17T11:36:21.391Z,11.00
2023-11-17T11:38:48.846Z,11.00
2023-11-17T11:41:18.478Z,11.00
2023-11-17T11:43:46.822Z,11.00
2023-11-17T11:46:19.382Z,11.00
2023-11-17T11:48:54.036Z,11.00
2023-11-17T11:51:24.745Z,11.00
2023-11-17T11:54:08.665Z,11.00
2023-11-17T11:56:41.540Z,11.00
2023-11-17T11:59:09.319Z,11.00
2023-11-17T12:01:37.573Z,11.00
2023-11-17T12:04:07.353Z,11.00
2023-11-17T12:06:39.588Z,11.00
2023-11-17T12:09:21.101Z,11.10
2023-11-17T12:11:52.939Z,11.10
2023-11-17T12:14:27.620Z,11.20
2023-11-17T12:16:56.928Z,11.10
2023-11-17T12:19:28.771Z,11.20
2023-11-17T12:21:59.881Z,11.20
2023-11-17T12:24:28.188Z,11.20
2023-11-17T12:26:56.990Z,11.20
2023-11-17T12:29:33.304Z,11.20
2023-11-17T12:32:09.957Z,11.30
2023-11-17T12:34:43.510Z,11.30
2023-11-17T12:37:11.527Z,11.30
2023-11-17T12:39:41.286Z,11.30
2023-11-17T12:42:21.966Z,11.20
2023-11-17T12:44:49.206Z,11.30
2023-11-17T12:47:25.454Z,11.20
2023-11-17T12:49:57.583Z,11.20
2023-11-17T12:52:24.917Z,11.10
2023-11-17T12:55:09.959Z,11.00
2023-11-17T12:57:38.233Z,11.00
2023-11-17T13:00:17.699Z,10.90
2023-11-17T13:02:45.218Z,10.90
2023-11-17T13:05:13.374Z,10.90
2023-11-17T13:07:40.812Z,10.80
2023-11-17T13:10:12.336Z,10.80
2023-11-17T13:12:40.651Z,10.80
2023-11-17T13:15:11.194Z,10.70
2023-11-17T13:17:38.272Z,10.70
2023-11-17T13:20:13.611Z,10.70
2023-11-17T13:22:44.392Z,10.60
2023-11-17T13:25:12.860Z,10.60
2023-11-17T13:27:46.258Z,10.60
2023-11-17T13:30:18.719Z,10.60
2023-11-17T13:33:02.848Z,10.60
2023-11-17T13:35:31.706Z,10.70
2023-11-17T13:38:05.258Z,10.70
2023-11-17T13:40:35.255Z,10.70
2023-11-17T13:43:12.707Z,10.60
2023-11-17T13:45:40.818Z,10.70
2023-11-17T13:48:11.784Z,10.70
2023-11-17T13:50:53.278Z,10.70
2023-11-17T13:53:23.127Z,10.70
2023-11-17T13:55:53.501Z,10.70
2023-11-17T13:58:21.396Z,10.70
2023-11-17T14:00:49.010Z,10.70
2023-11-17T14:03:16.055Z,10.70
2023-11-17T14:05:43.596Z,10.70
2023-11-17T14:08:13.423Z,10.70
2023-11-17T14:10:40.368Z,10.60
2023-11-17T14:13:07.333Z,10.60
2023-11-17T14:15:41.056Z,10.50
2023-11-17T14:18:12.666Z,10.50
2023-11-17T14:20:41.748Z,10.50
2023-11-17T14:23:08.680Z,10.50
2023-11-17T14:25:37.623Z,10.50
2023-11-17T14:28:04.806Z,10.40
2023-11-17T14:30:31.890Z,10.40
2023-11-17T14:33:00.249Z,10.50
2023-11-17T14:35:27.376Z,10.40
2023-11-17T14:37:54.311Z,10.40
2023-11-17T14:40:21.345Z,10.40
2023-11-17T14:42:48.309Z,10.40
2023-11-17T14:45:17.491Z,10.40
2023-11-17T14:47:47.465Z,10.40
2023-11-17T14:50:15.387Z,10.40
2023-11-17T14:52:44.099Z,10.40
2023-11-17T14:55:11.977Z,10.50
2023-11-17T14:57:39.871Z,10.40
2023-11-17T15:00:20.986Z,10.40
2023-11-17T15:02:49.398Z,10.40
2023-11-17T15:05:22.269Z,10.40
2023-11-17T15:07:50.421Z,10.40
2023-11-17T15:10:19.654Z,10.40
2023-11-17T15:12:48.575Z,10.30
2023-11-17T15:15:30.900Z,10.30
2023-11-17T15:17:59.778Z,10.30
2023-11-17T15:20:29.600Z,10.30
2023-11-17T15:22:57.019Z,10.30
2023-11-17T15:25:32.726Z,10.20
2023-11-17T15:27:59.633Z,10.20
2023-11-17T15:30:28.165Z,10.20
2023-11-17T15:32:55.353Z,10.20
2023-11-17T15:35:24.922Z,10.20
2023-11-17T15:37:52.205Z,10.10
2023-11-17T15:40:22.859Z,10.10
2023-11-17T15:42:49.991Z,10.10
2023-11-17T15:45:23.919Z,10.00
2023-11-17T15:47:50.946Z,9.90
2023-11-17T15:50:20.037Z,10.00
2023-11-17T15:52:47.085Z,10.00
2023-11-17T15:55:17.422Z,10.00
2023-11-17T15:57:45.934Z,9.90
2023-11-17T16:00:24.796Z,9.90
2023-11-17T16:02:53.222Z,9.90
2023-11-17T16:05:22.711Z,9.80
2023-11-17T16:07:52.277Z,9.80
2023-11-17T16:10:22.481Z,9.80
2023-11-17T16:12:54.911Z,9.80
2023-11-17T16:15:23.040Z,9.80
2023-11-17T16:17:55.450Z,9.70
2023-11-17T16:20:27.157Z,9.70
2023-11-17T16:22:55.040Z,9.70
2023-11-17T16:25:22.577Z,9.70
2023-11-17T16:27:50.954Z,9.70
2023-11-17T16:30:22.056Z,9.60
2023-11-17T16:32:56.026Z,9.60
2023-11-17T16:35:28.532Z,9.60
2023-11-17T16:37:55.958Z,9.60
2023-11-17T16:40:28.799Z,9.60
2023-11-17T16:43:08.791Z,9.50
2023-11-17T16:45:44.350Z,9.50
2023-11-17T16:48:11.501Z,9.50
2023-11-17T16:50:43.548Z,9.40
2023-11-17T16:53:15.317Z,9.40
2023-11-17T16:55:44.234Z,9.40
2023-11-17T16:58:13.232Z,9.30
2023-11-17T17:00:41.716Z,9.30
2023-11-17T17:03:09.021Z,9.30
2023-11-17T17:05:37.123Z,9.20
2023-11-17T17:08:07.977Z,9.20
2023-11-17T17:10:36.526Z,9.10
2023-11-17T17:13:04.544Z,9.10
2023-11-17T17:15:34.087Z,9.10
2023-11-17T17:18:08.144Z,9.10
2023-11-17T17:20:41.733Z,9.10
2023-11-17T17:23:13.784Z,9.00
2023-11-17T17:25:41.785Z,9.00
2023-11-17T17:28:13.910Z,9.00
2023-11-17T17:30:42.721Z,9.00
2023-11-17T17:33:11.913Z,9.00
2023-11-17T17:35:44.548Z,9.00
2023-11-17T17:38:13.178Z,9.00
2023-11-17T17:40:41.764Z,9.00
2023-11-17T17:43:10.877Z,9.00
2023-11-17T17:45:38.615Z,8.90
2023-11-17T17:48:08.566Z,8.90
2023-11-17T17:50:36.260Z,8.90
2023-11-17T17:53:03.280Z,8.80
2023-11-17T17:55:30.406Z,8.80
2023-11-17T17:57:58.015Z,8.70
2023-11-17T18:00:26.347Z,8.70
2023-11-17T18:02:59.392Z,8.70
2023-11-17T18:05:28.303Z,8.60
2023-11-17T18:07:56.108Z,8.60
2023-11-17T18:10:23.414Z,8.50
2023-11-17T18:12:52.021Z,8.60
2023-11-17T18:15:22.574Z,8.50
2023-11-17T18:17:53.133Z,8.40
2023-11-17T18:20:24.144Z,8.50
2023-11-17T18:22:53.448Z,8.40
2023-11-17T18:25:22.024Z,8.30
2023-11-17T18:27:50.805Z,8.40
2023-11-17T18:30:19.713Z,8.40
2023-11-17T18:32:47.476Z,8.30
2023-11-17T18:35:16.935Z,8.30
2023-11-17T18:37:49.134Z,8.30
2023-11-17T18:40:26.057Z,8.30
2023-11-17T18:42:53.838Z,8.30
2023-11-17T18:45:21.508Z,8.30
2023-11-17T18:47:49.272Z,8.30
2023-11-17T18:50:16.492Z,8.40
2023-11-17T18:52:44.130Z,8.50
2023-11-17T18:55:14.457Z,8.50
2023-11-17T18:57:41.929Z,8.50
2023-11-17T19:00:12.595Z,8.60
2023-11-17T19:02:40.759Z,8.60
2023-11-17T19:05:10.722Z,8.70
2023-11-17T19:07:38.596Z,8.70
2023-11-17T19:10:09.805Z,8.70
2023-11-17T19:12:36.933Z,8.70
2023-11-17T19:15:07.872Z,8.70
2023-11-17T19:17:39.273Z,8.70
2023-11-17T19:20:13.576Z,8.70
2023-11-17T19:22:41.746Z,8.70
2023-11-17T19:25:09.651Z,8.60
2023-11-17T19:27:37.846Z,8.60
2023-11-17T19:30:13.806Z,8.60
2023-11-17T19:32:46.832Z,8.60
2023-11-17T19:35:15.519Z,8.60
2023-11-17T19:37:43.963Z,8.50
2023-11-17T19:40:13.369Z,8.50
2023-11-17T19:42:42.921Z,8.50
2023-11-17T19:45:17.203Z,8.50
2023-11-17T19:47:48.023Z,8.50
2023-11-17T19:50:18.601Z,8.50
2023-11-17T19:52:48.252Z,8.50
2023-11-17T19:55:16.313Z,8.40
2023-11-17T19:57:48.219Z,8.40
2023-11-17T20:00:24.271Z,8.40
2023-11-17T20:02:52.755Z,8.30
2023-11-17T20:05:23.181Z,8.30
2023-11-17T20:07:51.067Z,8.30
2023-11-17T20:10:18.191Z,8.20
2023-11-17T20:12:46.165Z,8.20
2023-11-17T20:15:16.520Z,8.20
2023-11-17T20:17:55.225Z,8.20
2023-11-17T20:20:25.826Z,8.20
2023-11-17T20:22:53.052Z,8.10
2023-11-17T20:25:24.509Z,8.10
2023-11-17T20:27:52.633Z,8.10
2023-11-17T20:30:23.478Z,8.10
2023-11-17T20:32:53.730Z,8.10
2023-11-17T20:35:24.739Z,8.10
2023-11-17T20:37:52.710Z,8.10
2023-11-17T20:40:19.940Z,8.20
2023-11-17T20:42:48.767Z,8.20
2023-11-17T20:45:16.774Z,8.20
2023-11-17T20:47:45.576Z,8.20
2023-11-17T20:50:22.898Z,8.20
2023-11-17T20:52:52.415Z,8.20
2023-11-17T20:55:20.971Z,8.20
2023-11-17T20:57:50.547Z,8.20
2023-11-17T21:00:24.668Z,8.20
2023-11-17T21:02:57.353Z,8.20
2023-11-17T21:05:25.456Z,8.20
2023-11-17T21:07:54.818Z,8.20
2023-11-17T21:10:27.915Z,8.20
2023-11-17T21:12:56.526Z,8.10
2023-11-17T21:15:24.547Z,8.10
2023-11-17T21:17:54.646Z,8.10
2023-11-17T21:20:22.181Z,8.10
2023-11-17T21:22:50.033Z,8.10
2023-11-17T21:25:19.502Z,8.10
2023-11-17T21:27:48.541Z,8.00
2023-11-17T21:30:16.707Z,8.00
2023-11-17T21:32:48.513Z,8.00
2023-11-17T21:35:18.655Z,8.00
2023-11-17T21:37:46.350Z,8.00
2023-11-17T21:40:17.019Z,8.00
2023-11-17T21:42:45.949Z,7.90
2023-11-17T21:45:23.221Z,7.90
2023-11-17T21:47:57.333Z,7.90
2023-11-17T21:50:26.141Z,7.90
2023-11-17T21:52:56.553Z,7.90
2023-11-17T21:55:23.874Z,7.80
2023-11-17T21:57:50.870Z,7.80
2023-11-17T22:00:19.479Z,7.70
2023-11-17T22:02:49.474Z,7.70
2023-11-17T22:05:19.029Z,7.70
2023-11-17T22:07:48.456Z,7.70
2023-11-17T22:10:15.648Z,7.70
2023-11-17T22:12:46.530Z,7.70
2023-11-17T22:15:13.983Z,7.60
2023-11-17T22:17:44.046Z,7.60
2023-11-17T22:20:16.530Z,7.60
2023-11-17T22:22:45.591Z,7.60
2023-11-17T22:25:13.874Z,7.60
2023-11-17T22:27:44.547Z,7.60
2023-11-17T22:30:20.762Z,7.60
2023-11-17T22:32:49.515Z,7.60
2023-11-17T22:35:18.511Z,7.50
2023-11-17T22:37:54.598Z,7.50
2023-11-17T22:40:23.659Z,7.50
2023-11-17T22:42:52.606Z,7.50
2023-11-17T22:45:19.741Z,7.60
2023-11-17T22:47:47.584Z,7.60
2023-11-17T22:50:17.937Z,7.60
2023-11-17T22:52:46.209Z,7.60
2023-11-17T22:55:13.496Z,7.60
2023-11-17T22:57:40.981Z,7.60
2023-11-17T23:00:37.766Z,7.60
2023-11-17T23:03:08.582Z,7.60
2023-11-17T23:05:42.466Z,7.60
2023-11-17T23:08:12.763Z,7.60
2023-11-17T23:10:39.734Z,7.60
2023-11-17T23:13:08.179Z,7.60
2023-11-17T23:15:35.180Z,7.60
2023-11-17T23:18:02.697Z,7.50
2023-11-17T23:20:30.350Z,7.50
2023-11-17T23:22:58.145Z,7.50
2023-11-17T23:25:26.300Z,7.50
2023-11-17T23:27:53.579Z,7.40
2023-11-17T23:30:20.652Z,7.40
2023-11-17T23:32:48.494Z,7.40
2023-11-17T23:35:15.720Z,7.30
2023-11-17T23:37:42.686Z,7.30
2023-11-17T23:40:17.134Z,7.30
2023-11-17T23:42:48.908Z,7.30
2023-11-17T23:45:17.605Z,7.30
2023-11-17T23:47:44.862Z,7.30
2023-11-17T23:50:12.577Z,7.30
2023-11-17T23:52:39.541Z,7.30
2023-11-17T23:55:07.206Z,7.40
2023-11-17T23:57:34.158Z,7.40
